sensor_id;sensor_type;location;lat;lon;timestamp;P1;durP1;ratioP1;P2;durP2;ratioP2
64826;SDS011;51265;53.972;12.286;2023-04-10T00:00:24;12.68;;;6.78;;
64826;SDS011;51265;53.972;12.286;2023-04-10T00:02:51;12.07;;;7.45;;
64826;SDS011;51265;53.972;12.286;2023-04-10T00:05:17;15.27;;;8.70;;
64826;SDS011;51265;53.972;12.286;2023-04-10T00:07:44;13.13;;;7.43;;
64826;SDS011;51265;53.972;12.286;2023-04-10T00:10:10;12.40;;;7.68;;
64826;SDS011;51265;53.972;12.286;2023-04-10T00:12:37;15.55;;;7.82;;
64826;SDS011;51265;53.972;12.286;2023-04-10T00:15:03;13.43;;;7.05;;
64826;SDS011;51265;53.972;12.286;2023-04-10T00:17:30;15.13;;;8.10;;
64826;SDS011;51265;53.972;12.286;2023-04-10T00:19:57;13.80;;;7.22;;
64826;SDS011;51265;53.972;12.286;2023-04-10T00:22:24;13.80;;;7.97;;
64826;SDS011;51265;53.972;12.286;2023-04-10T00:24:50;15.93;;;7.47;;
64826;SDS011;51265;53.972;12.286;2023-04-10T00:27:17;14.02;;;7.20;;
64826;SDS011;51265;53.972;12.286;2023-04-10T00:29:43;15.60;;;7.30;;
64826;SDS011;51265;53.972;12.286;2023-04-10T00:32:09;11.30;;;7.30;;
64826;SDS011;51265;53.972;12.286;2023-04-10T00:34:36;12.52;;;7.40;;
64826;SDS011;51265;53.972;12.286;2023-04-10T00:37:03;10.35;;;7.00;;
64826;SDS011;51265;53.972;12.286;2023-04-10T00:39:29;14.27;;;7.40;;
64826;SDS011;51265;53.972;12.286;2023-04-10T00:41:55;15.80;;;7.47;;
64826;SDS011;51265;53.972;12.286;2023-04-10T00:44:22;13.65;;;7.25;;
64826;SDS011;51265;53.972;12.286;2023-04-10T00:46:49;16.23;;;8.30;;
64826;SDS011;51265;53.972;12.286;2023-04-10T00:49:16;12.75;;;7.40;;
64826;SDS011;51265;53.972;12.286;2023-04-10T00:51:43;15.45;;;8.00;;
64826;SDS011;51265;53.972;12.286;2023-04-10T00:54:09;15.95;;;7.45;;
64826;SDS011;51265;53.972;12.286;2023-04-10T00:56:37;14.75;;;7.72;;
64826;SDS011;51265;53.972;12.286;2023-04-10T00:59:03;16.08;;;8.63;;
64826;SDS011;51265;53.972;12.286;2023-04-10T01:01:30;16.95;;;8.77;;
64826;SDS011;51265;53.972;12.286;2023-04-10T01:03:56;14.63;;;8.13;;
64826;SDS011;51265;53.972;12.286;2023-04-10T01:23:16;14.52;;;9.10;;
64826;SDS011;51265;53.972;12.286;2023-04-10T01:25:58;15.02;;;8.68;;
64826;SDS011;51265;53.972;12.286;2023-04-10T01:31:05;15.43;;;9.18;;
64826;SDS011;51265;53.972;12.286;2023-04-10T01:33:41;12.80;;;8.70;;
64826;SDS011;51265;53.972;12.286;2023-04-10T01:36:12;15.27;;;9.57;;
64826;SDS011;51265;53.972;12.286;2023-04-10T01:38:47;15.27;;;8.63;;
64826;SDS011;51265;53.972;12.286;2023-04-10T01:41:17;15.93;;;8.68;;
64826;SDS011;51265;53.972;12.286;2023-04-10T01:43:47;14.85;;;9.13;;
64826;SDS011;51265;53.972;12.286;2023-04-10T01:46:16;15.65;;;8.77;;
64826;SDS011;51265;53.972;12.286;2023-04-10T01:48:46;17.95;;;9.32;;
64826;SDS011;51265;53.972;12.286;2023-04-10T01:51:14;17.40;;;8.93;;
64826;SDS011;51265;53.972;12.286;2023-04-10T01:53:42;13.95;;;8.95;;
64826;SDS011;51265;53.972;12.286;2023-04-10T01:56:11;14.65;;;8.68;;
64826;SDS011;51265;53.972;12.286;2023-04-10T01:58:43;15.43;;;8.45;;
64826;SDS011;51265;53.972;12.286;2023-04-10T02:01:10;17.48;;;8.88;;
64826;SDS011;51265;53.972;12.286;2023-04-10T02:03:36;15.30;;;8.85;;
64826;SDS011;51265;53.972;12.286;2023-04-10T02:09:11;13.13;;;7.88;;
64826;SDS011;51265;53.972;12.286;2023-04-10T02:11:58;17.63;;;9.27;;
64826;SDS011;51265;53.972;12.286;2023-04-10T02:14:30;15.90;;;8.88;;
64826;SDS011;51265;53.972;12.286;2023-04-10T02:17:00;16.17;;;8.85;;
64826;SDS011;51265;53.972;12.286;2023-04-10T02:19:27;15.68;;;8.50;;
64826;SDS011;51265;53.972;12.286;2023-04-10T02:21:57;13.70;;;8.23;;
64826;SDS011;51265;53.972;12.286;2023-04-10T02:24:24;17.23;;;8.48;;
64826;SDS011;51265;53.972;12.286;2023-04-10T02:26:51;15.90;;;9.20;;
64826;SDS011;51265;53.972;12.286;2023-04-10T02:29:18;17.90;;;9.25;;
64826;SDS011;51265;53.972;12.286;2023-04-10T02:31:45;17.85;;;8.50;;
64826;SDS011;51265;53.972;12.286;2023-04-10T02:34:13;18.05;;;8.95;;
64826;SDS011;51265;53.972;12.286;2023-04-10T02:36:39;18.58;;;9.93;;
64826;SDS011;51265;53.972;12.286;2023-04-10T02:39:08;14.68;;;8.93;;
64826;SDS011;51265;53.972;12.286;2023-04-10T02:41:43;15.25;;;9.95;;
64826;SDS011;51265;53.972;12.286;2023-04-10T02:44:11;19.83;;;9.50;;
64826;SDS011;51265;53.972;12.286;2023-04-10T02:46:38;16.00;;;9.63;;
64826;SDS011;51265;53.972;12.286;2023-04-10T02:49:05;18.20;;;11.10;;
64826;SDS011;51265;53.972;12.286;2023-04-10T02:51:34;21.10;;;10.35;;
64826;SDS011;51265;53.972;12.286;2023-04-10T02:54:02;22.88;;;10.10;;
64826;SDS011;51265;53.972;12.286;2023-04-10T02:56:34;94.28;;;11.98;;
64826;SDS011;51265;53.972;12.286;2023-04-10T02:59:02;22.83;;;9.82;;
64826;SDS011;51265;53.972;12.286;2023-04-10T03:01:30;20.48;;;9.60;;
64826;SDS011;51265;53.972;12.286;2023-04-10T03:03:57;20.50;;;8.95;;
64826;SDS011;51265;53.972;12.286;2023-04-10T03:06:27;23.38;;;8.32;;
64826;SDS011;51265;53.972;12.286;2023-04-10T03:08:55;17.52;;;7.95;;
64826;SDS011;51265;53.972;12.286;2023-04-10T03:11:22;24.20;;;7.85;;
64826;SDS011;51265;53.972;12.286;2023-04-10T03:13:49;15.68;;;6.43;;
64826;SDS011;51265;53.972;12.286;2023-04-10T03:16:15;27.60;;;6.72;;
64826;SDS011;51265;53.972;12.286;2023-04-10T03:18:45;28.75;;;7.05;;
64826;SDS011;51265;53.972;12.286;2023-04-10T03:21:11;46.05;;;7.95;;
64826;SDS011;51265;53.972;12.286;2023-04-10T03:23:38;18.77;;;6.63;;
64826;SDS011;51265;53.972;12.286;2023-04-10T03:26:04;31.60;;;7.55;;
64826;SDS011;51265;53.972;12.286;2023-04-10T03:28:36;37.17;;;7.85;;
64826;SDS011;51265;53.972;12.286;2023-04-10T03:31:03;67.05;;;8.73;;
64826;SDS011;51265;53.972;12.286;2023-04-10T03:33:34;24.70;;;7.18;;
64826;SDS011;51265;53.972;12.286;2023-04-10T03:36:00;26.17;;;7.72;;
64826;SDS011;51265;53.972;12.286;2023-04-10T03:38:27;34.08;;;8.25;;
64826;SDS011;51265;53.972;12.286;2023-04-10T03:40:53;22.85;;;7.65;;
64826;SDS011;51265;53.972;12.286;2023-04-10T03:43:23;33.15;;;9.32;;
64826;SDS011;51265;53.972;12.286;2023-04-10T03:45:51;63.63;;;8.73;;
64826;SDS011;51265;53.972;12.286;2023-04-10T03:48:17;87.40;;;9.30;;
64826;SDS011;51265;53.972;12.286;2023-04-10T03:50:46;26.42;;;7.95;;
64826;SDS011;51265;53.972;12.286;2023-04-10T03:53:12;35.20;;;8.98;;
64826;SDS011;51265;53.972;12.286;2023-04-10T03:55:39;42.53;;;8.75;;
64826;SDS011;51265;53.972;12.286;2023-04-10T03:58:06;32.38;;;8.02;;
64826;SDS011;51265;53.972;12.286;2023-04-10T04:00:33;41.92;;;9.50;;
64826;SDS011;51265;53.972;12.286;2023-04-10T04:03:09;61.97;;;9.32;;
64826;SDS011;51265;53.972;12.286;2023-04-10T04:05:54;30.73;;;8.45;;
64826;SDS011;51265;53.972;12.286;2023-04-10T04:08:35;26.35;;;8.80;;
64826;SDS011;51265;53.972;12.286;2023-04-10T04:11:15;55.13;;;10.90;;
64826;SDS011;51265;53.972;12.286;2023-04-10T04:13:54;106.25;;;10.40;;
64826;SDS011;51265;53.972;12.286;2023-04-10T04:16:39;38.88;;;9.10;;
64826;SDS011;51265;53.972;12.286;2023-04-10T04:19:38;28.58;;;8.95;;
64826;SDS011;51265;53.972;12.286;2023-04-10T04:22:24;24.85;;;8.77;;
64826;SDS011;51265;53.972;12.286;2023-04-10T04:25:09;89.05;;;10.63;;
64826;SDS011;51265;53.972;12.286;2023-04-10T04:27:54;72.60;;;10.35;;
64826;SDS011;51265;53.972;12.286;2023-04-10T04:30:44;50.58;;;9.90;;
64826;SDS011;51265;53.972;12.286;2023-04-10T04:33:20;56.95;;;10.65;;
64826;SDS011;51265;53.972;12.286;2023-04-10T04:35:49;77.80;;;9.80;;
64826;SDS011;51265;53.972;12.286;2023-04-10T04:38:30;45.28;;;9.77;;
64826;SDS011;51265;53.972;12.286;2023-04-10T04:41:09;48.00;;;9.73;;
64826;SDS011;51265;53.972;12.286;2023-04-10T04:43:38;29.42;;;9.50;;
64826;SDS011;51265;53.972;12.286;2023-04-10T04:46:24;44.97;;;8.93;;
64826;SDS011;51265;53.972;12.286;2023-04-10T04:49:10;31.92;;;9.32;;
64826;SDS011;51265;53.972;12.286;2023-04-10T04:51:47;19.23;;;8.50;;
64826;SDS011;51265;53.972;12.286;2023-04-10T04:54:26;14.52;;;8.77;;
64826;SDS011;51265;53.972;12.286;2023-04-10T04:57:28;27.60;;;8.00;;
64826;SDS011;51265;53.972;12.286;2023-04-10T05:00:13;35.63;;;8.77;;
64826;SDS011;51265;53.972;12.286;2023-04-10T05:03:03;57.22;;;16.60;;
64826;SDS011;51265;53.972;12.286;2023-04-10T05:05:51;43.95;;;14.50;;
64826;SDS011;51265;53.972;12.286;2023-04-10T05:08:43;22.00;;;11.38;;
64826;SDS011;51265;53.972;12.286;2023-04-10T05:11:42;14.65;;;9.05;;
64826;SDS011;51265;53.972;12.286;2023-04-10T05:14:19;17.38;;;8.43;;
64826;SDS011;51265;53.972;12.286;2023-04-10T05:17:12;13.45;;;8.43;;
64826;SDS011;51265;53.972;12.286;2023-04-10T05:19:49;17.95;;;8.07;;
64826;SDS011;51265;53.972;12.286;2023-04-10T05:22:34;17.33;;;8.85;;
64826;SDS011;51265;53.972;12.286;2023-04-10T05:25:15;13.50;;;7.60;;
64826;SDS011;51265;53.972;12.286;2023-04-10T05:28:04;18.55;;;8.60;;
64826;SDS011;51265;53.972;12.286;2023-04-10T05:30:59;13.27;;;8.93;;
64826;SDS011;51265;53.972;12.286;2023-04-10T05:33:38;12.40;;;7.78;;
64826;SDS011;51265;53.972;12.286;2023-04-10T05:36:13;13.70;;;8.55;;
64826;SDS011;51265;53.972;12.286;2023-04-10T05:39:09;17.77;;;9.88;;
64826;SDS011;51265;53.972;12.286;2023-04-10T05:42:05;25.67;;;14.45;;
64826;SDS011;51265;53.972;12.286;2023-04-10T05:44:45;35.08;;;20.25;;
64826;SDS011;51265;53.972;12.286;2023-04-10T05:47:30;18.60;;;12.00;;
64826;SDS011;51265;53.972;12.286;2023-04-10T05:50:10;17.77;;;9.82;;
64826;SDS011;51265;53.972;12.286;2023-04-10T05:52:55;16.10;;;9.88;;
64826;SDS011;51265;53.972;12.286;2023-04-10T05:55:40;17.20;;;10.13;;
64826;SDS011;51265;53.972;12.286;2023-04-10T05:58:19;16.25;;;8.95;;
64826;SDS011;51265;53.972;12.286;2023-04-10T06:00:51;16.52;;;9.27;;
64826;SDS011;51265;53.972;12.286;2023-04-10T06:03:44;14.43;;;9.10;;
64826;SDS011;51265;53.972;12.286;2023-04-10T06:06:11;15.90;;;9.10;;
64826;SDS011;51265;53.972;12.286;2023-04-10T06:08:38;16.52;;;9.02;;
64826;SDS011;51265;53.972;12.286;2023-04-10T06:11:05;13.88;;;9.13;;
64826;SDS011;51265;53.972;12.286;2023-04-10T06:13:31;13.25;;;8.95;;
64826;SDS011;51265;53.972;12.286;2023-04-10T06:15:59;14.10;;;9.18;;
64826;SDS011;51265;53.972;12.286;2023-04-10T06:18:27;15.38;;;9.70;;
64826;SDS011;51265;53.972;12.286;2023-04-10T06:20:53;15.50;;;9.77;;
64826;SDS011;51265;53.972;12.286;2023-04-10T06:23:21;15.00;;;9.57;;
64826;SDS011;51265;53.972;12.286;2023-04-10T06:25:49;15.73;;;9.55;;
64826;SDS011;51265;53.972;12.286;2023-04-10T06:28:15;15.05;;;10.00;;
64826;SDS011;51265;53.972;12.286;2023-04-10T06:30:45;17.55;;;9.88;;
64826;SDS011;51265;53.972;12.286;2023-04-10T06:33:12;15.55;;;9.20;;
64826;SDS011;51265;53.972;12.286;2023-04-10T06:35:42;13.40;;;9.30;;
64826;SDS011;51265;53.972;12.286;2023-04-10T06:38:08;15.55;;;9.85;;
64826;SDS011;51265;53.972;12.286;2023-04-10T06:40:35;47.97;;;27.95;;
64826;SDS011;51265;53.972;12.286;2023-04-10T06:43:02;67.35;;;37.40;;
64826;SDS011;51265;53.972;12.286;2023-04-10T06:45:50;26.45;;;16.00;;
64826;SDS011;51265;53.972;12.286;2023-04-10T06:48:17;20.58;;;11.25;;
64826;SDS011;51265;53.972;12.286;2023-04-10T06:50:43;16.83;;;10.48;;
64826;SDS011;51265;53.972;12.286;2023-04-10T06:53:09;16.85;;;8.98;;
64826;SDS011;51265;53.972;12.286;2023-04-10T06:55:36;14.95;;;8.95;;
64826;SDS011;51265;53.972;12.286;2023-04-10T06:58:02;16.33;;;9.15;;
64826;SDS011;51265;53.972;12.286;2023-04-10T07:00:29;14.38;;;9.13;;
64826;SDS011;51265;53.972;12.286;2023-04-10T07:02:55;15.30;;;9.13;;
64826;SDS011;51265;53.972;12.286;2023-04-10T07:05:22;13.45;;;9.10;;
64826;SDS011;51265;53.972;12.286;2023-04-10T07:07:49;12.73;;;9.25;;
64826;SDS011;51265;53.972;12.286;2023-04-10T07:10:16;13.85;;;8.40;;
64826;SDS011;51265;53.972;12.286;2023-04-10T07:12:42;12.45;;;8.40;;
64826;SDS011;51265;53.972;12.286;2023-04-10T07:15:08;11.90;;;8.15;;
64826;SDS011;51265;53.972;12.286;2023-04-10T07:17:37;10.68;;;8.13;;
64826;SDS011;51265;53.972;12.286;2023-04-10T07:20:04;13.15;;;8.70;;
64826;SDS011;51265;53.972;12.286;2023-04-10T07:22:31;12.68;;;8.18;;
64826;SDS011;51265;53.972;12.286;2023-04-10T07:24:57;11.65;;;7.07;;
64826;SDS011;51265;53.972;12.286;2023-04-10T07:27:24;11.60;;;7.88;;
64826;SDS011;51265;53.972;12.286;2023-04-10T07:29:54;14.13;;;7.00;;
64826;SDS011;51265;53.972;12.286;2023-04-10T07:32:21;10.88;;;7.20;;
64826;SDS011;51265;53.972;12.286;2023-04-10T07:34:48;13.45;;;7.90;;
64826;SDS011;51265;53.972;12.286;2023-04-10T07:37:15;10.25;;;7.30;;
64826;SDS011;51265;53.972;12.286;2023-04-10T07:39:43;12.13;;;7.30;;
64826;SDS011;51265;53.972;12.286;2023-04-10T07:42:10;10.13;;;7.50;;
64826;SDS011;51265;53.972;12.286;2023-04-10T07:44:36;13.27;;;7.10;;
64826;SDS011;51265;53.972;12.286;2023-04-10T07:47:04;9.90;;;6.78;;
64826;SDS011;51265;53.972;12.286;2023-04-10T07:49:30;12.52;;;7.05;;
64826;SDS011;51265;53.972;12.286;2023-04-10T07:51:56;11.57;;;6.97;;
64826;SDS011;51265;53.972;12.286;2023-04-10T07:54:23;10.30;;;6.63;;
64826;SDS011;51265;53.972;12.286;2023-04-10T07:56:50;29.65;;;16.85;;
64826;SDS011;51265;53.972;12.286;2023-04-10T07:59:18;13.32;;;8.02;;
64826;SDS011;51265;53.972;12.286;2023-04-10T08:01:45;16.17;;;9.65;;
64826;SDS011;51265;53.972;12.286;2023-04-10T08:04:11;15.38;;;8.43;;
64826;SDS011;51265;53.972;12.286;2023-04-10T08:06:38;9.52;;;7.00;;
64826;SDS011;51265;53.972;12.286;2023-04-10T08:09:04;14.75;;;8.30;;
64826;SDS011;51265;53.972;12.286;2023-04-10T08:11:34;12.82;;;7.60;;
64826;SDS011;51265;53.972;12.286;2023-04-10T08:14:01;13.57;;;7.65;;
64826;SDS011;51265;53.972;12.286;2023-04-10T08:16:29;14.43;;;9.00;;
64826;SDS011;51265;53.972;12.286;2023-04-10T08:18:57;12.80;;;7.82;;
64826;SDS011;51265;53.972;12.286;2023-04-10T08:21:25;12.75;;;8.20;;
64826;SDS011;51265;53.972;12.286;2023-04-10T08:23:53;13.75;;;8.30;;
64826;SDS011;51265;53.972;12.286;2023-04-10T08:26:20;12.55;;;8.05;;
64826;SDS011;51265;53.972;12.286;2023-04-10T08:28:47;13.75;;;8.43;;
64826;SDS011;51265;53.972;12.286;2023-04-10T08:31:19;15.27;;;8.60;;
64826;SDS011;51265;53.972;12.286;2023-04-10T08:33:46;13.65;;;8.00;;
64826;SDS011;51265;53.972;12.286;2023-04-10T08:36:18;10.82;;;7.75;;
64826;SDS011;51265;53.972;12.286;2023-04-10T08:38:45;13.98;;;8.93;;
64826;SDS011;51265;53.972;12.286;2023-04-10T08:41:12;14.77;;;8.57;;
64826;SDS011;51265;53.972;12.286;2023-04-10T08:43:40;14.50;;;8.88;;
64826;SDS011;51265;53.972;12.286;2023-04-10T08:46:08;12.57;;;8.85;;
64826;SDS011;51265;53.972;12.286;2023-04-10T08:48:37;14.05;;;8.52;;
64826;SDS011;51265;53.972;12.286;2023-04-10T08:51:06;14.85;;;8.95;;
64826;SDS011;51265;53.972;12.286;2023-04-10T08:53:38;17.02;;;8.88;;
64826;SDS011;51265;53.972;12.286;2023-04-10T08:56:08;15.52;;;8.35;;
64826;SDS011;51265;53.972;12.286;2023-04-10T08:58:37;13.48;;;8.85;;
64826;SDS011;51265;53.972;12.286;2023-04-10T09:01:05;15.20;;;9.90;;
64826;SDS011;51265;53.972;12.286;2023-04-10T09:03:32;17.45;;;9.20;;
64826;SDS011;51265;53.972;12.286;2023-04-10T09:06:02;17.25;;;9.73;;
64826;SDS011;51265;53.972;12.286;2023-04-10T09:08:30;14.57;;;9.98;;
64826;SDS011;51265;53.972;12.286;2023-04-10T09:10:57;13.85;;;10.02;;
64826;SDS011;51265;53.972;12.286;2023-04-10T09:13:37;15.98;;;9.63;;
64826;SDS011;51265;53.972;12.286;2023-04-10T09:16:06;15.55;;;9.80;;
64826;SDS011;51265;53.972;12.286;2023-04-10T09:18:40;15.52;;;9.93;;
64826;SDS011;51265;53.972;12.286;2023-04-10T09:21:11;17.88;;;11.30;;
64826;SDS011;51265;53.972;12.286;2023-04-10T09:23:40;16.10;;;11.00;;
64826;SDS011;51265;53.972;12.286;2023-04-10T09:26:27;16.65;;;11.23;;
64826;SDS011;51265;53.972;12.286;2023-04-10T09:29:02;13.18;;;9.55;;
64826;SDS011;51265;53.972;12.286;2023-04-10T09:31:36;16.13;;;10.25;;
64826;SDS011;51265;53.972;12.286;2023-04-10T09:36:52;14.10;;;9.63;;
64826;SDS011;51265;53.972;12.286;2023-04-10T09:39:31;15.23;;;10.23;;
64826;SDS011;51265;53.972;12.286;2023-04-10T09:41:59;15.60;;;10.60;;
64826;SDS011;51265;53.972;12.286;2023-04-10T09:44:33;16.42;;;10.07;;
64826;SDS011;51265;53.972;12.286;2023-04-10T09:49:49;18.80;;;10.68;;
64826;SDS011;51265;53.972;12.286;2023-04-10T09:54:44;15.30;;;10.40;;
64826;SDS011;51265;53.972;12.286;2023-04-10T09:57:15;15.35;;;10.35;;
64826;SDS011;51265;53.972;12.286;2023-04-10T09:59:47;16.15;;;10.68;;
64826;SDS011;51265;53.972;12.286;2023-04-10T10:02:19;16.25;;;10.50;;
64826;SDS011;51265;53.972;12.286;2023-04-10T10:04:47;15.13;;;10.35;;
64826;SDS011;51265;53.972;12.286;2023-04-10T10:07:14;16.13;;;10.43;;
64826;SDS011;51265;53.972;12.286;2023-04-10T10:09:42;18.20;;;10.68;;
64826;SDS011;51265;53.972;12.286;2023-04-10T10:12:10;13.73;;;10.27;;
64826;SDS011;51265;53.972;12.286;2023-04-10T10:14:43;16.45;;;10.90;;
64826;SDS011;51265;53.972;12.286;2023-04-10T10:17:46;15.82;;;10.68;;
64826;SDS011;51265;53.972;12.286;2023-04-10T10:20:30;16.17;;;10.35;;
64826;SDS011;51265;53.972;12.286;2023-04-10T10:23:01;16.65;;;10.63;;
64826;SDS011;51265;53.972;12.286;2023-04-10T10:25:28;16.45;;;10.35;;
64826;SDS011;51265;53.972;12.286;2023-04-10T10:27:56;15.20;;;10.20;;
64826;SDS011;51265;53.972;12.286;2023-04-10T10:30:28;14.55;;;10.63;;
64826;SDS011;51265;53.972;12.286;2023-04-10T10:32:57;16.92;;;10.57;;
64826;SDS011;51265;53.972;12.286;2023-04-10T10:35:25;23.48;;;14.48;;
64826;SDS011;51265;53.972;12.286;2023-04-10T10:37:52;15.05;;;10.57;;
64826;SDS011;51265;53.972;12.286;2023-04-10T10:49:03;15.57;;;10.50;;
64826;SDS011;51265;53.972;12.286;2023-04-10T10:51:45;14.07;;;9.27;;
64826;SDS011;51265;53.972;12.286;2023-04-10T10:54:26;15.98;;;9.23;;
64826;SDS011;51265;53.972;12.286;2023-04-10T10:56:53;13.98;;;8.80;;
64826;SDS011;51265;53.972;12.286;2023-04-10T11:02:18;15.75;;;9.05;;
64826;SDS011;51265;53.972;12.286;2023-04-10T11:04:48;13.10;;;9.43;;
64826;SDS011;51265;53.972;12.286;2023-04-10T11:07:14;12.73;;;9.05;;
64826;SDS011;51265;53.972;12.286;2023-04-10T11:14:55;13.75;;;9.40;;
64826;SDS011;51265;53.972;12.286;2023-04-10T11:20:17;15.25;;;10.27;;
64826;SDS011;51265;53.972;12.286;2023-04-10T11:25:47;14.77;;;8.85;;
64826;SDS011;51265;53.972;12.286;2023-04-10T11:34:03;11.15;;;7.47;;
64826;SDS011;51265;53.972;12.286;2023-04-10T11:36:31;10.07;;;7.05;;
64826;SDS011;51265;53.972;12.286;2023-04-10T11:39:00;10.30;;;7.20;;
64826;SDS011;51265;53.972;12.286;2023-04-10T11:41:32;7.93;;;5.97;;
64826;SDS011;51265;53.972;12.286;2023-04-10T11:44:01;9.30;;;6.05;;
64826;SDS011;51265;53.972;12.286;2023-04-10T11:46:35;6.70;;;4.95;;
64826;SDS011;51265;53.972;12.286;2023-04-10T11:49:04;7.75;;;5.68;;
64826;SDS011;51265;53.972;12.286;2023-04-10T11:51:32;6.78;;;4.55;;
64826;SDS011;51265;53.972;12.286;2023-04-10T11:54:12;5.28;;;3.65;;
64826;SDS011;51265;53.972;12.286;2023-04-10T11:56:42;5.13;;;3.90;;
64826;SDS011;51265;53.972;12.286;2023-04-10T11:59:10;5.93;;;4.40;;
64826;SDS011;51265;53.972;12.286;2023-04-10T12:01:39;5.45;;;4.10;;
64826;SDS011;51265;53.972;12.286;2023-04-10T12:04:16;5.43;;;3.83;;
64826;SDS011;51265;53.972;12.286;2023-04-10T12:06:44;5.53;;;4.03;;
64826;SDS011;51265;53.972;12.286;2023-04-10T12:09:12;8.32;;;4.10;;
64826;SDS011;51265;53.972;12.286;2023-04-10T12:11:47;7.38;;;4.10;;
64826;SDS011;51265;53.972;12.286;2023-04-10T12:14:22;6.18;;;3.55;;
64826;SDS011;51265;53.972;12.286;2023-04-10T12:16:55;5.22;;;4.15;;
64826;SDS011;51265;53.972;12.286;2023-04-10T12:19:21;7.13;;;4.70;;
64826;SDS011;51265;53.972;12.286;2023-04-10T12:21:48;6.22;;;4.20;;
64826;SDS011;51265;53.972;12.286;2023-04-10T12:24:39;6.03;;;3.75;;
64826;SDS011;51265;53.972;12.286;2023-04-10T12:27:17;4.07;;;2.75;;
64826;SDS011;51265;53.972;12.286;2023-04-10T12:29:49;4.25;;;2.78;;
64826;SDS011;51265;53.972;12.286;2023-04-10T12:32:16;3.70;;;2.80;;
64826;SDS011;51265;53.972;12.286;2023-04-10T12:34:53;5.53;;;2.72;;
64826;SDS011;51265;53.972;12.286;2023-04-10T12:37:59;4.22;;;2.95;;
64826;SDS011;51265;53.972;12.286;2023-04-10T12:40:21;5.50;;;3.30;;
64826;SDS011;51265;53.972;12.286;2023-04-10T12:42:48;4.22;;;2.97;;
64826;SDS011;51265;53.972;12.286;2023-04-10T12:45:14;3.25;;;2.80;;
64826;SDS011;51265;53.972;12.286;2023-04-10T12:50:12;4.35;;;3.40;;
64826;SDS011;51265;53.972;12.286;2023-04-10T12:52:41;4.00;;;2.90;;
64826;SDS011;51265;53.972;12.286;2023-04-10T12:55:18;4.75;;;3.45;;
64826;SDS011;51265;53.972;12.286;2023-04-10T12:57:46;4.80;;;3.35;;
64826;SDS011;51265;53.972;12.286;2023-04-10T13:00:18;3.65;;;2.88;;
64826;SDS011;51265;53.972;12.286;2023-04-10T13:02:46;3.55;;;2.60;;
64826;SDS011;51265;53.972;12.286;2023-04-10T13:05:13;3.83;;;2.78;;
64826;SDS011;51265;53.972;12.286;2023-04-10T13:07:40;5.80;;;3.08;;
64826;SDS011;51265;53.972;12.286;2023-04-10T13:10:07;4.22;;;3.08;;
64826;SDS011;51265;53.972;12.286;2023-04-10T13:12:34;3.00;;;2.50;;
64826;SDS011;51265;53.972;12.286;2023-04-10T13:15:02;5.65;;;2.80;;
64826;SDS011;51265;53.972;12.286;2023-04-10T13:17:29;12.07;;;6.72;;
64826;SDS011;51265;53.972;12.286;2023-04-10T13:19:55;12.93;;;9.45;;
64826;SDS011;51265;53.972;12.286;2023-04-10T13:22:22;3.55;;;2.92;;
64826;SDS011;51265;53.972;12.286;2023-04-10T13:24:48;3.92;;;2.58;;
64826;SDS011;51265;53.972;12.286;2023-04-10T13:27:14;3.88;;;2.78;;
64826;SDS011;51265;53.972;12.286;2023-04-10T13:29:41;6.00;;;2.92;;
64826;SDS011;51265;53.972;12.286;2023-04-10T13:32:08;4.03;;;2.90;;
64826;SDS011;51265;53.972;12.286;2023-04-10T13:34:35;5.35;;;3.08;;
64826;SDS011;51265;53.972;12.286;2023-04-10T13:37:01;4.57;;;2.92;;
64826;SDS011;51265;53.972;12.286;2023-04-10T13:39:28;4.25;;;3.10;;
64826;SDS011;51265;53.972;12.286;2023-04-10T13:41:56;4.28;;;2.88;;
64826;SDS011;51265;53.972;12.286;2023-04-10T13:44:23;4.88;;;3.63;;
64826;SDS011;51265;53.972;12.286;2023-04-10T13:46:50;6.00;;;3.70;;
64826;SDS011;51265;53.972;12.286;2023-04-10T13:49:17;4.93;;;3.17;;
64826;SDS011;51265;53.972;12.286;2023-04-10T13:51:45;5.10;;;3.50;;
64826;SDS011;51265;53.972;12.286;2023-04-10T13:54:11;5.43;;;3.50;;
64826;SDS011;51265;53.972;12.286;2023-04-10T13:56:38;5.35;;;3.55;;
64826;SDS011;51265;53.972;12.286;2023-04-10T13:59:05;5.22;;;3.33;;
64826;SDS011;51265;53.972;12.286;2023-04-10T14:01:32;4.97;;;3.83;;
64826;SDS011;51265;53.972;12.286;2023-04-10T14:03:58;8.52;;;4.35;;
64826;SDS011;51265;53.972;12.286;2023-04-10T14:06:24;7.50;;;3.88;;
64826;SDS011;51265;53.972;12.286;2023-04-10T14:08:52;4.65;;;4.00;;
64826;SDS011;51265;53.972;12.286;2023-04-10T14:11:18;6.72;;;4.25;;
64826;SDS011;51265;53.972;12.286;2023-04-10T14:13:45;4.97;;;4.13;;
64826;SDS011;51265;53.972;12.286;2023-04-10T14:16:12;5.18;;;4.05;;
64826;SDS011;51265;53.972;12.286;2023-04-10T14:18:39;12.25;;;9.27;;
64826;SDS011;51265;53.972;12.286;2023-04-10T14:21:05;6.65;;;5.35;;
64826;SDS011;51265;53.972;12.286;2023-04-10T14:23:32;5.60;;;4.63;;
64826;SDS011;51265;53.972;12.286;2023-04-10T14:26:03;5.82;;;4.40;;
64826;SDS011;51265;53.972;12.286;2023-04-10T14:28:30;5.40;;;4.20;;
64826;SDS011;51265;53.972;12.286;2023-04-10T14:30:57;5.55;;;4.15;;
64826;SDS011;51265;53.972;12.286;2023-04-10T14:33:23;6.07;;;4.50;;
64826;SDS011;51265;53.972;12.286;2023-04-10T14:35:49;5.20;;;4.30;;
64826;SDS011;51265;53.972;12.286;2023-04-10T14:38:16;7.18;;;4.35;;
64826;SDS011;51265;53.972;12.286;2023-04-10T14:40:42;7.40;;;4.57;;
64826;SDS011;51265;53.972;12.286;2023-04-10T14:43:13;7.80;;;4.40;;
64826;SDS011;51265;53.972;12.286;2023-04-10T14:45:40;7.03;;;4.97;;
64826;SDS011;51265;53.972;12.286;2023-04-10T14:48:06;4.30;;;3.90;;
64826;SDS011;51265;53.972;12.286;2023-04-10T14:50:33;5.03;;;4.38;;
64826;SDS011;51265;53.972;12.286;2023-04-10T14:52:59;5.72;;;4.50;;
64826;SDS011;51265;53.972;12.286;2023-04-10T14:55:27;6.22;;;4.63;;
64826;SDS011;51265;53.972;12.286;2023-04-10T14:57:55;7.07;;;4.75;;
64826;SDS011;51265;53.972;12.286;2023-04-10T15:00:22;7.43;;;5.03;;
64826;SDS011;51265;53.972;12.286;2023-04-10T15:02:50;10.63;;;5.53;;
64826;SDS011;51265;53.972;12.286;2023-04-10T15:05:16;7.75;;;5.10;;
64826;SDS011;51265;53.972;12.286;2023-04-10T15:07:43;6.78;;;4.40;;
64826;SDS011;51265;53.972;12.286;2023-04-10T15:10:09;6.10;;;4.90;;
64826;SDS011;51265;53.972;12.286;2023-04-10T15:12:37;8.45;;;5.03;;
64826;SDS011;51265;53.972;12.286;2023-04-10T15:15:03;7.13;;;4.95;;
64826;SDS011;51265;53.972;12.286;2023-04-10T15:17:30;7.80;;;6.32;;
64826;SDS011;51265;53.972;12.286;2023-04-10T15:19:57;11.45;;;8.13;;
64826;SDS011;51265;53.972;12.286;2023-04-10T15:22:23;5.20;;;4.68;;
64826;SDS011;51265;53.972;12.286;2023-04-10T15:24:50;7.32;;;4.97;;
64826;SDS011;51265;53.972;12.286;2023-04-10T15:27:20;5.82;;;4.57;;
64826;SDS011;51265;53.972;12.286;2023-04-10T15:29:47;5.65;;;4.63;;
64826;SDS011;51265;53.972;12.286;2023-04-10T15:32:13;8.45;;;5.00;;
64826;SDS011;51265;53.972;12.286;2023-04-10T15:34:40;6.15;;;4.47;;
64826;SDS011;51265;53.972;12.286;2023-04-10T15:37:06;7.32;;;5.13;;
64826;SDS011;51265;53.972;12.286;2023-04-10T15:39:32;7.45;;;4.78;;
64826;SDS011;51265;53.972;12.286;2023-04-10T15:41:59;6.97;;;5.43;;
64826;SDS011;51265;53.972;12.286;2023-04-10T15:44:25;6.30;;;4.85;;